createdAt,value
2023-04-18T20:02:26.539Z,100593.41
2023-04-18T20:03:30.333Z,100605.47
2023-04-18T20:04:34.463Z,100605.81
2023-04-18T20:05:38.366Z,100601.22
2023-04-18T20:06:42.131Z,100605.94
2023-04-18T20:07:45.800Z,100606.06
2023-04-18T20:08:49.535Z,100603.44
2023-04-18T20:09:54.013Z,100599.78
2023-04-18T20:10:57.696Z,100594.81
2023-04-18T20:12:01.434Z,100595.81
2023-04-18T20:13:05.008Z,100603.16
2023-04-18T20:14:08.701Z,100600.59
2023-04-18T20:15:13.162Z,100600.72
2023-04-18T20:16:16.955Z,100605.88
2023-04-18T20:17:20.803Z,100599.88
2023-04-18T20:18:26.146Z,100598.94
2023-04-18T20:19:29.970Z,100598.63
2023-04-18T20:20:33.609Z,100597.94
2023-04-18T20:21:37.211Z,100594.81
2023-04-18T20:22:40.894Z,100603.28
2023-04-18T20:23:44.598Z,100600.50
2023-04-18T20:24:48.242Z,100600.38
2023-04-18T20:25:51.900Z,100598.22
2023-04-18T20:26:55.657Z,100599.22
2023-04-18T20:27:59.276Z,100597.50
2023-04-18T20:29:03.011Z,100595.66
2023-04-18T20:30:07.774Z,100587.78
2023-04-18T20:31:12.817Z,100599.72
2023-04-18T20:32:16.588Z,100594.22
2023-04-18T20:33:20.203Z,100599.19
2023-04-18T20:34:25.584Z,100602.53
2023-04-18T20:35:29.393Z,100596.13
2023-04-18T20:36:33.130Z,100601.94
2023-04-18T20:37:36.963Z,100591.41
2023-04-18T20:38:40.722Z,100603.91
2023-04-18T20:39:44.371Z,100602.63
2023-04-18T20:40:48.489Z,100597.78
2023-04-18T20:41:52.209Z,100564.72
2023-04-18T20:42:56.384Z,100579.94
2023-04-18T20:44:00.108Z,100599.56
2023-04-18T20:45:03.854Z,100602.28
2023-04-18T20:46:07.621Z,100607.25
2023-04-18T20:47:12.374Z,100600.50
2023-04-18T20:48:17.043Z,100601.19
2023-04-18T20:49:20.808Z,100609.50
2023-04-18T20:50:26.168Z,100608.16
2023-04-18T20:51:29.808Z,100604.25
2023-04-18T20:52:33.546Z,100572.53
2023-04-18T20:53:37.209Z,100606.28
2023-04-18T20:54:40.872Z,100619.09
2023-04-18T20:55:44.611Z,100616.13
2023-04-18T20:56:48.241Z,100606.84
2023-04-18T20:57:51.933Z,100611.34
2023-04-18T20:58:55.896Z,100619.59
2023-04-18T20:59:59.521Z,100621.06
2023-04-18T21:01:03.232Z,100620.38
2023-04-18T21:02:08.933Z,100615.34
2023-04-18T21:03:14.919Z,100620.72
2023-04-18T21:04:19.376Z,100624.03
2023-04-18T21:05:23.403Z,100619.91
2023-04-18T21:06:28.787Z,100620.88
2023-04-18T21:07:32.544Z,100613.41
2023-04-18T21:08:36.217Z,100622.84
2023-04-18T21:09:39.792Z,100621.22
2023-04-18T21:10:43.612Z,100619.72
2023-04-18T21:11:47.271Z,100627.75
2023-04-18T21:12:50.998Z,100632.66
2023-04-18T21:13:54.673Z,100619.56
2023-04-18T21:14:58.326Z,100631.25
2023-04-18T21:16:02.081Z,100631.50
2023-04-18T21:17:05.809Z,100633.69
2023-04-18T21:18:09.608Z,100629.72
2023-04-18T21:19:13.447Z,100625.88
2023-04-18T21:20:17.176Z,100626.34
2023-04-18T21:21:20.923Z,100627.38
2023-04-18T21:22:26.267Z,100629.00
2023-04-18T21:23:29.962Z,100634.63
2023-04-18T21:24:33.560Z,100632.31
2023-04-18T21:25:37.246Z,100633.41
2023-04-18T21:26:40.950Z,100627.53
2023-04-18T21:27:44.639Z,100618.72
2023-04-18T21:28:56.247Z,100629.59
2023-04-18T21:30:00.412Z,100634.16
2023-04-18T21:31:04.591Z,100632.09
2023-04-18T21:32:08.375Z,100631.09
2023-04-18T21:33:12.115Z,100624.78
2023-04-18T21:34:16.011Z,100629.34
2023-04-18T21:35:21.328Z,100629.94
2023-04-18T21:36:28.113Z,100630.03
2023-04-18T21:37:33.543Z,100619.25
2023-04-18T21:38:37.201Z,100631.53
2023-04-18T21:39:40.984Z,100628.81
2023-04-18T21:40:44.642Z,100636.22
2023-04-18T21:41:48.242Z,100636.72
2023-04-18T21:42:52.047Z,100625.59
2023-04-18T21:43:55.871Z,100624.31
2023-04-18T21:44:59.616Z,100625.69
2023-04-18T21:46:03.323Z,100629.06
2023-04-18T21:47:07.086Z,100628.81
2023-04-18T21:48:10.863Z,100620.47
2023-04-18T21:49:14.520Z,100625.50
2023-04-18T21:50:18.167Z,100624.09
2023-04-18T21:51:21.860Z,100619.53
2023-04-18T21:52:25.707Z,100624.31
2023-04-18T21:53:31.038Z,100624.78
2023-04-18T21:54:34.745Z,100625.50
2023-04-18T21:55:38.427Z,100620.53
2023-04-18T21:56:42.171Z,100630.94
2023-04-18T21:57:45.808Z,100598.34
2023-04-18T21:58:50.162Z,100626.44
2023-04-18T21:59:53.872Z,100621.28
2023-04-18T22:00:58.024Z,100605.94
2023-04-18T22:02:01.731Z,100626.22
2023-04-18T22:03:05.702Z,100628.25
2023-04-18T22:04:09.656Z,100625.50
2023-04-18T22:05:13.510Z,100627.44
2023-04-18T22:06:17.501Z,100626.50
2023-04-18T22:07:21.174Z,100627.00
2023-04-18T22:08:25.107Z,100632.59
2023-04-18T22:09:30.358Z,100634.78
2023-04-18T22:10:34.121Z,100635.66
2023-04-18T22:11:37.758Z,100631.84
2023-04-18T22:12:41.375Z,100625.09
2023-04-18T22:13:45.343Z,100631.75
2023-04-18T22:14:49.021Z,100623.75
2023-04-18T22:15:52.886Z,100629.34
2023-04-18T22:16:56.623Z,100633.63
2023-04-18T22:18:00.528Z,100624.84
2023-04-18T22:19:04.280Z,100647.78
2023-04-18T22:20:09.287Z,100629.34
2023-04-18T22:21:12.935Z,100642.88
2023-04-18T22:22:16.598Z,100632.16
2023-04-18T22:23:20.290Z,100643.41
2023-04-18T22:24:24.086Z,100643.84
2023-04-18T22:25:29.383Z,100630.34
2023-04-18T22:26:33.051Z,100650.88
2023-04-18T22:27:36.650Z,100655.03
2023-04-18T22:28:40.398Z,100647.66
2023-04-18T22:29:44.134Z,100648.66
2023-04-18T22:30:47.869Z,100645.81
2023-04-18T22:31:51.596Z,100643.13
2023-04-18T22:32:55.315Z,100661.41
2023-04-18T22:33:59.015Z,100658.34
2023-04-18T22:35:02.693Z,100653.75
2023-04-18T22:36:06.987Z,100656.50
2023-04-18T22:37:10.628Z,100661.09
2023-04-18T22:38:14.295Z,100664.84
2023-04-18T22:39:18.086Z,100655.69
2023-04-18T22:40:22.015Z,100663.00
2023-04-18T22:41:27.417Z,100640.28
2023-04-18T22:42:32.131Z,100667.06
2023-04-18T22:43:36.917Z,100663.25
2023-04-18T22:44:40.623Z,100668.03
2023-04-18T22:45:46.059Z,100670.78
2023-04-18T22:46:49.892Z,100663.84
2023-04-18T22:47:53.660Z,100670.78
2023-04-18T22:48:57.386Z,100676.03
2023-04-18T22:50:01.100Z,100672.59
2023-04-18T22:51:04.879Z,100675.94
2023-04-18T22:52:08.667Z,100668.09
2023-04-18T22:53:12.699Z,100674.19
2023-04-18T22:54:16.494Z,100690.53
2023-04-18T22:55:20.306Z,100674.13
2023-04-18T22:56:24.065Z,100681.53
2023-04-18T22:57:29.686Z,100681.00
2023-04-18T22:58:33.303Z,100680.50
2023-04-18T22:59:37.037Z,100682.25
2023-04-18T23:00:40.853Z,100683.03
2023-04-18T23:01:44.738Z,100667.34
2023-04-18T23:02:48.627Z,100690.16
2023-04-18T23:03:53.193Z,100682.47
2023-04-18T23:04:58.753Z,100687.75
2023-04-18T23:06:22.567Z,100684.31
2023-04-18T23:07:26.422Z,100661.81
2023-04-18T23:08:30.669Z,100689.81
2023-04-18T23:09:35.490Z,100688.69
2023-04-18T23:10:42.813Z,100686.13
2023-04-18T23:11:46.475Z,100703.47
2023-04-18T23:12:53.259Z,100690.03
2023-04-18T23:13:57.297Z,100691.56
2023-04-18T23:15:01.028Z,100690.28
2023-04-18T23:16:05.482Z,100693.16
2023-04-18T23:17:09.349Z,100663.66
2023-04-18T23:18:13.018Z,100693.72
2023-04-18T23:19:16.605Z,100704.41
2023-04-18T23:20:20.482Z,100665.91
2023-04-18T23:21:24.186Z,100694.50
2023-04-18T23:22:27.838Z,100677.75
2023-04-18T23:23:31.462Z,100697.53
2023-04-18T23:24:35.098Z,100695.31
2023-04-18T23:25:38.724Z,100706.72
2023-04-18T23:26:42.546Z,100680.44
2023-04-18T23:27:46.194Z,100699.03
2023-04-18T23:28:51.568Z,100700.41
2023-04-18T23:29:55.327Z,100700.78
2023-04-18T23:30:59.181Z,100697.88
2023-04-18T23:32:02.829Z,100697.22
2023-04-18T23:33:06.634Z,100705.41
2023-04-18T23:34:11.049Z,100710.47
2023-04-18T23:35:14.689Z,100702.19
2023-04-18T23:36:18.447Z,100711.94
2023-04-18T23:37:22.141Z,100703.41
2023-04-18T23:38:25.986Z,100709.13
2023-04-18T23:39:29.613Z,100707.19
2023-04-18T23:40:33.304Z,100710.06
2023-04-18T23:41:37.064Z,100712.69
2023-04-18T23:42:40.750Z,100711.81
2023-04-18T23:43:44.550Z,100714.44
2023-04-18T23:44:50.009Z,100715.91
2023-04-18T23:45:53.626Z,100725.00
2023-04-18T23:46:57.386Z,100716.25
2023-04-18T23:48:01.098Z,100705.22
2023-04-18T23:49:04.806Z,100719.22
2023-04-18T23:50:09.913Z,100721.41
2023-04-18T23:51:13.587Z,100728.53
2023-04-18T23:52:17.352Z,100720.97
2023-04-18T23:53:21.816Z,100728.53
2023-04-18T23:54:27.744Z,100736.00
2023-04-18T23:55:31.440Z,100725.28
2023-04-18T23:56:35.666Z,100724.91
2023-04-18T23:57:39.335Z,100738.00
2023-04-18T23:58:43.072Z,100732.50
2023-04-18T23:59:48.376Z,100730.19
